Weather reports worldwide

Advertisment
Trento, Italy (16023): temperature & dewpoint: 17.04.2018 01:00:00 - 23.04.2018 01:00:00 (CEST)Trento, Italy (16023): reduced air pressure: 17.04.2018 01:00:00 - 23.04.2018 01:00:00 (CEST)Trento, Italy (16023): precipitation: 17.04.2018 01:00:00 - 23.04.2018 01:00:00 (CEST)
Date & Time tt [°C] td [°C] ppp [hPa] rr [mm]
23.04.2018 01:00:00 - - - -
23.04.2018 00:00:00 16,4 8,3 1017,7 -
22.04.2018 23:00:00 19,1 8,7 1017,2 -
22.04.2018 22:00:00 21,1 9,0 1016,4 -
22.04.2018 21:00:00 23,0 9,7 1015,4 -
22.04.2018 20:00:00 24,6 10,1 1014,4 0,0
22.04.2018 19:00:00 25,8 - 1013,9 -
22.04.2018 18:00:00 - - - -
22.04.2018 17:00:00 - - - -
22.04.2018 16:00:00 28,0 - 1013,5 -
22.04.2018 15:00:00 - - - -
22.04.2018 14:00:00 - - - 0,0
22.04.2018 13:00:00 24,5 10,7 1016,4 -
22.04.2018 12:00:00 23,2 9,9 1017,6 -
22.04.2018 11:00:00 20,7 8,9 1018,5 -
22.04.2018 10:00:00 18,8 - 1019,0 -
22.04.2018 09:00:00 15,4 12,1 1019,7 -
22.04.2018 08:00:00 11,7 9,6 1020,3 0,0
22.04.2018 07:00:00 11,3 9,0 1020,0 -
22.04.2018 06:00:00 11,6 9,0 1019,8 -
22.04.2018 05:00:00 12,0 9,0 1019,9 -
22.04.2018 04:00:00 12,5 9,1 1020,0 -
22.04.2018 03:00:00 13,3 8,9 1019,9 -
22.04.2018 02:00:00 14,4 8,7 1019,8 0,0
22.04.2018 01:00:00 15,5 8,2 1019,6 -
22.04.2018 00:00:00 17,4 8,5 1019,0 -
21.04.2018 23:00:00 20,3 8,2 1018,4 -
21.04.2018 22:00:00 22,1 9,2 1017,9 -
21.04.2018 21:00:00 24,3 - 1016,9 -
21.04.2018 20:00:00 25,3 - - 0,0
21.04.2018 19:00:00 - - - -
21.04.2018 18:00:00 28,0 11,1 1015,2 -
21.04.2018 17:00:00 - - - -
21.04.2018 16:00:00 29,6 11,2 1016,3 -
21.04.2018 15:00:00 - - - -
21.04.2018 14:00:00 26,5 - 1018,6 0,0
21.04.2018 13:00:00 25,0 - - -
21.04.2018 12:00:00 22,6 - 1021,3 -
21.04.2018 11:00:00 20,4 7,3 1022,1 -
21.04.2018 10:00:00 18,1 6,5 1022,8 -
21.04.2018 09:00:00 14,6 8,9 1023,6 -
21.04.2018 08:00:00 10,6 6,7 1024,1 0,0
21.04.2018 07:00:00 10,3 6,0 1023,8 -
21.04.2018 06:00:00 10,5 5,8 1023,6 -
21.04.2018 05:00:00 10,9 5,4 1023,5 -
21.04.2018 04:00:00 11,3 5,3 1023,5 -
21.04.2018 03:00:00 12,0 5,6 1023,4 -
21.04.2018 02:00:00 12,8 5,9 1023,4 0,0
21.04.2018 01:00:00 13,4 5,7 1023,2 -
21.04.2018 00:00:00 14,7 5,4 1022,8 -
20.04.2018 23:00:00 16,5 6,3 1022,4 -
20.04.2018 22:00:00 18,4 6,2 1021,9 -
20.04.2018 21:00:00 21,5 7,3 1021,1 -
20.04.2018 20:00:00 24,2 - 1020,2 0,0
20.04.2018 19:00:00 - - - -
20.04.2018 18:00:00 29,6 - 1019,7 -
20.04.2018 17:00:00 - - - -
20.04.2018 16:00:00 29,9 - 1020,8 -
20.04.2018 15:00:00 - - - -
20.04.2018 14:00:00 - - - 0,0
20.04.2018 13:00:00 24,4 - 1024,7 -
20.04.2018 12:00:00 - - - -
20.04.2018 11:00:00 20,1 7,7 1026,9 -
20.04.2018 10:00:00 17,7 7,4 1027,5 -
20.04.2018 09:00:00 14,5 9,5 1028,0 -
20.04.2018 08:00:00 10,9 8,1 1028,3 -
20.04.2018 07:00:00 10,2 7,4 1028,0 -
20.04.2018 06:00:00 10,5 7,3 1027,7 -
20.04.2018 05:00:00 10,8 7,1 1027,6 -
20.04.2018 04:00:00 11,5 7,6 1027,5 -
20.04.2018 03:00:00 11,3 6,8 1027,5 -
20.04.2018 02:00:00 11,9 6,8 1027,8 0,0
20.04.2018 01:00:00 13,0 6,5 1027,4 -
20.04.2018 00:00:00 14,2 7,0 1027,2 -
19.04.2018 23:00:00 15,2 7,2 1027,0 -
19.04.2018 22:00:00 17,2 7,5 1026,6 -
19.04.2018 21:00:00 19,5 7,5 1025,8 -
19.04.2018 20:00:00 22,2 - 1024,9 0,0
19.04.2018 19:00:00 - - - -
19.04.2018 18:00:00 27,2 - 1023,8 -
19.04.2018 17:00:00 - - - -
19.04.2018 16:00:00 - - - -
19.04.2018 15:00:00 - - - -
19.04.2018 14:00:00 - - - 0,0
19.04.2018 13:00:00 - - - -
19.04.2018 12:00:00 20,7 - - -
19.04.2018 11:00:00 19,1 - - -
19.04.2018 10:00:00 16,8 4,7 1030,5 -
19.04.2018 09:00:00 13,5 7,4 1031,2 -
19.04.2018 08:00:00 9,6 5,9 1031,8 0,0
19.04.2018 07:00:00 9,4 5,5 1031,5 -
19.04.2018 06:00:00 9,8 5,9 1031,2 -
19.04.2018 05:00:00 10,5 6,8 1031,2 -
19.04.2018 04:00:00 10,9 7,2 1031,0 -
19.04.2018 03:00:00 11,6 7,5 1030,7 -
19.04.2018 02:00:00 12,3 7,7 1030,6 0,0
19.04.2018 01:00:00 13,4 7,8 1030,2 -
19.04.2018 00:00:00 14,8 - - -
18.04.2018 23:00:00 16,8 8,4 1029,1 -
18.04.2018 22:00:00 18,8 8,7 1028,3 -
18.04.2018 21:00:00 20,6 8,2 1027,4 -
18.04.2018 20:00:00 23,5 - 1026,1 0,0
18.04.2018 19:00:00 24,5 - 1025,4 -
18.04.2018 18:00:00 - - - -
18.04.2018 17:00:00 - - - -
18.04.2018 16:00:00 - - - -
18.04.2018 15:00:00 - - - -
18.04.2018 14:00:00 - - - 0,0
18.04.2018 13:00:00 - - - -
18.04.2018 12:00:00 20,8 6,6 1029,0 -
18.04.2018 11:00:00 18,4 - 1029,7 -
18.04.2018 10:00:00 16,4 4,7 1030,2 -
18.04.2018 09:00:00 13,1 6,1 1030,7 -
18.04.2018 08:00:00 9,7 5,8 1030,9 0,0
18.04.2018 07:00:00 9,2 5,3 1030,1 -
18.04.2018 06:00:00 9,2 5,7 1029,8 -
18.04.2018 05:00:00 9,5 5,8 1029,4 -
18.04.2018 04:00:00 10,1 6,6 1028,8 -
18.04.2018 03:00:00 10,9 8,1 1028,6 -
18.04.2018 02:00:00 12,0 9,0 1028,4 0,0
18.04.2018 01:00:00 12,7 9,3 1027,8 -
18.04.2018 00:00:00 13,8 9,4 1026,9 -
17.04.2018 23:00:00 15,3 - 1026,1 -
17.04.2018 22:00:00 17,0 8,9 1024,9 -
17.04.2018 21:00:00 19,7 10,1 1023,3 -
17.04.2018 20:00:00 - - - 0,0
17.04.2018 19:00:00 22,7 - 1020,4 -
17.04.2018 18:00:00 - - - -
17.04.2018 17:00:00 - - - -
17.04.2018 16:00:00 - - - -
17.04.2018 15:00:00 - - - -
17.04.2018 14:00:00 - - - 0,0
17.04.2018 13:00:00 - - - -
17.04.2018 12:00:00 - - - -
17.04.2018 11:00:00 18,8 - 1021,9 -
17.04.2018 10:00:00 16,6 - - -
17.04.2018 09:00:00 14,2 8,8 1022,3 -
17.04.2018 08:00:00 11,0 7,1 1022,0 0,0
17.04.2018 07:00:00 10,7 6,2 1020,9 -
17.04.2018 06:00:00 11,3 5,5 1019,9 -
17.04.2018 05:00:00 12,9 6,0 1019,2 -
17.04.2018 04:00:00 14,4 6,9 1018,3 -
17.04.2018 03:00:00 14,5 8,2 1018,2 -
17.04.2018 02:00:00 13,8 - - 0,0
17.04.2018 01:00:00 13,2 9,0 1017,1 -

tt = temperature
td = dewpoint
ppp = reduced air pressure
rr = precipitation

Next stations